createdAt,value
2022-12-12T00:01:25.784Z,-3.33
2022-12-12T00:04:27.379Z,-3.38
2022-12-12T00:07:28.973Z,-3.36
2022-12-12T00:10:30.682Z,-3.43
2022-12-12T00:13:32.558Z,-3.44
2022-12-12T00:16:35.759Z,-3.41
2022-12-12T00:19:37.534Z,-3.48
2022-12-12T00:22:39.111Z,-3.49
2022-12-12T00:25:40.885Z,-3.52
2022-12-12T00:28:42.496Z,-3.54
2022-12-12T00:31:45.641Z,-3.55
2022-12-12T00:34:47.412Z,-3.57
2022-12-12T00:37:49.209Z,-3.58
2022-12-12T00:40:54.969Z,-3.65
2022-12-12T00:43:56.766Z,-3.68
2022-12-12T00:46:59.950Z,-3.71
2022-12-12T00:50:01.938Z,-3.70
2022-12-12T00:53:03.736Z,-3.72
2022-12-12T00:56:05.604Z,-3.75
2022-12-12T00:59:07.362Z,-3.73
2022-12-12T01:02:10.797Z,-3.72
2022-12-12T01:05:12.820Z,-3.73
2022-12-12T01:08:14.744Z,-3.77
2022-12-12T01:11:17.546Z,-3.78
2022-12-12T01:14:19.240Z,-3.80
2022-12-12T01:17:22.428Z,-3.83
2022-12-12T01:20:25.331Z,-3.86
2022-12-12T01:23:27.327Z,-3.87
2022-12-12T01:26:29.064Z,-3.88
2022-12-12T01:29:30.732Z,-3.89
2022-12-12T01:32:33.851Z,-3.94
2022-12-12T01:35:35.453Z,-3.97
2022-12-12T01:38:37.172Z,-4.01
2022-12-12T01:41:38.830Z,-4.00
2022-12-12T01:44:42.083Z,-4.06
2022-12-12T01:47:45.057Z,-4.10
2022-12-12T01:50:46.773Z,-4.02
2022-12-12T01:53:50.623Z,-4.02
2022-12-12T01:56:53.272Z,-4.06
2022-12-12T01:59:55.205Z,-4.07
2022-12-12T02:02:58.257Z,-4.13
2022-12-12T02:06:02.344Z,-4.20
2022-12-12T02:09:05.111Z,-4.22
2022-12-12T02:12:06.920Z,-4.20
2022-12-12T02:15:09.098Z,-4.25
2022-12-12T02:18:16.199Z,-4.24
2022-12-12T02:21:22.763Z,-4.19
2022-12-12T02:24:35.019Z,-4.22
2022-12-12T02:27:57.608Z,-4.29
2022-12-12T02:31:13.889Z,-4.31
2022-12-12T02:34:19.537Z,-4.31
2022-12-12T02:37:27.016Z,-4.36
2022-12-12T02:40:33.935Z,-4.45
2022-12-12T02:43:38.994Z,-4.48
2022-12-12T02:46:46.910Z,-4.49
2022-12-12T02:49:50.155Z,-4.52
2022-12-12T02:52:51.881Z,-4.46
2022-12-12T02:56:01.122Z,-4.34
2022-12-12T02:59:02.702Z,-4.31
2022-12-12T03:02:23.481Z,-4.28
2022-12-12T03:06:00.372Z,-4.35
2022-12-12T03:09:07.664Z,-4.44
2022-12-12T03:12:11.505Z,-4.33
2022-12-12T03:15:16.493Z,-4.29
2022-12-12T03:18:23.627Z,-4.30
2022-12-12T03:21:29.261Z,-4.19
2022-12-12T03:24:34.369Z,-4.29
2022-12-12T03:27:39.008Z,-4.40
2022-12-12T03:30:42.899Z,-4.48
2022-12-12T03:33:47.030Z,-4.55
2022-12-12T03:36:50.464Z,-4.60
2022-12-12T03:39:55.014Z,-4.65
2022-12-12T03:42:59.564Z,-4.71
2022-12-12T03:46:06.239Z,-4.70
2022-12-12T03:49:12.643Z,-4.65
2022-12-12T03:52:16.988Z,-4.70
2022-12-12T03:55:22.472Z,-4.72
2022-12-12T03:58:27.825Z,-4.73
2022-12-12T04:01:35.425Z,-4.79
2022-12-12T04:04:41.869Z,-4.86
2022-12-12T04:07:45.267Z,-4.86
2022-12-12T04:11:08.994Z,-4.95
2022-12-12T04:14:17.385Z,-4.99
2022-12-12T04:17:22.248Z,-5.01
2022-12-12T04:20:46.095Z,-5.00
2022-12-12T04:24:01.155Z,-5.05
2022-12-12T04:27:05.092Z,-4.99
2022-12-12T04:30:07.867Z,-5.09
2022-12-12T04:33:11.676Z,-5.11
2022-12-12T04:36:16.850Z,-5.13
2022-12-12T04:39:21.505Z,-5.11
2022-12-12T04:42:25.126Z,-5.12
2022-12-12T04:45:29.013Z,-5.11
2022-12-12T04:48:35.710Z,-5.15
2022-12-12T04:51:44.101Z,-5.10
2022-12-12T04:54:48.040Z,-5.10
2022-12-12T04:57:50.692Z,-5.13
2022-12-12T05:00:57.505Z,-5.25
2022-12-12T05:04:01.537Z,-5.21
2022-12-12T05:07:07.665Z,-5.24
2022-12-12T05:10:11.777Z,-5.26
2022-12-12T05:13:15.839Z,-5.23
2022-12-12T05:16:23.679Z,-5.24
2022-12-12T05:19:25.253Z,-5.23
2022-12-12T05:22:28.242Z,-5.27
2022-12-12T05:25:29.982Z,-5.32
2022-12-12T05:28:31.638Z,-5.33
2022-12-12T05:31:33.198Z,-5.33
2022-12-12T05:34:34.947Z,-5.30
2022-12-12T05:37:38.010Z,-5.34
2022-12-12T05:40:39.627Z,-5.38
2022-12-12T05:43:41.267Z,-5.42
2022-12-12T05:46:43.001Z,-5.43
2022-12-12T05:49:44.798Z,-5.44
2022-12-12T05:52:47.998Z,-5.40
2022-12-12T05:55:50.632Z,-5.39
2022-12-12T05:58:52.272Z,-5.37
2022-12-12T06:01:53.986Z,-5.41
2022-12-12T06:04:55.877Z,-5.42
2022-12-12T06:07:58.872Z,-5.39
2022-12-12T06:11:00.708Z,-5.44
2022-12-12T06:14:02.301Z,-5.38
2022-12-12T06:17:04.059Z,-5.39
2022-12-12T06:20:06.325Z,-5.43
2022-12-12T06:23:09.441Z,-5.47
2022-12-12T06:26:12.194Z,-5.53
2022-12-12T06:29:14.842Z,-5.71
2022-12-12T06:32:16.450Z,-5.61
2022-12-12T06:35:18.397Z,-5.58
2022-12-12T06:38:21.519Z,-5.56
2022-12-12T06:41:24.089Z,-5.55
2022-12-12T06:44:25.768Z,-5.56
2022-12-12T06:47:27.496Z,-5.58
2022-12-12T06:50:29.502Z,-5.57
2022-12-12T06:53:32.660Z,-5.63
2022-12-12T06:56:34.308Z,-5.65
2022-12-12T06:59:36.143Z,-5.62
2022-12-12T07:02:37.780Z,-5.60
2022-12-12T07:05:39.386Z,-5.61
2022-12-12T07:08:42.692Z,-5.65
2022-12-12T07:11:44.345Z,-5.68
2022-12-12T07:14:45.831Z,-5.69
2022-12-12T07:17:47.364Z,-5.67
2022-12-12T07:20:48.959Z,-5.69
2022-12-12T07:23:52.118Z,-5.79
2022-12-12T07:26:54.041Z,-5.77
2022-12-12T07:29:55.682Z,-5.71
2022-12-12T07:32:57.315Z,-5.65
2022-12-12T07:36:00.128Z,-5.63
2022-12-12T07:39:03.773Z,-5.63
2022-12-12T07:42:05.383Z,-5.65
2022-12-12T07:45:08.033Z,-5.70
2022-12-12T07:48:09.724Z,-5.67
2022-12-12T07:51:11.589Z,-5.65
2022-12-12T07:54:14.626Z,-5.63
2022-12-12T07:57:16.393Z,-5.60
2022-12-12T08:00:18.935Z,-5.58
2022-12-12T08:03:20.502Z,-5.55
2022-12-12T08:06:22.698Z,-5.41
2022-12-12T08:09:25.690Z,-5.39
2022-12-12T08:12:28.737Z,-5.34
2022-12-12T08:15:30.511Z,-5.32
2022-12-12T08:18:34.881Z,-5.26
2022-12-12T08:21:36.381Z,-5.24
2022-12-12T08:24:39.383Z,-5.13
2022-12-12T08:27:41.016Z,-5.08
2022-12-12T08:30:42.620Z,-5.01
2022-12-12T08:33:44.255Z,-4.94
2022-12-12T08:36:45.927Z,-4.80
2022-12-12T08:39:52.806Z,-4.67
2022-12-12T08:42:57.032Z,-4.60
2022-12-12T08:45:59.331Z,-4.55
2022-12-12T08:49:01.024Z,-4.44
2022-12-12T08:52:06.069Z,-4.38
2022-12-12T08:55:09.375Z,-4.29
2022-12-12T08:58:10.981Z,-4.34
2022-12-12T09:01:13.179Z,-4.26
2022-12-12T09:04:14.819Z,-4.19
2022-12-12T09:07:17.721Z,-4.11
2022-12-12T09:10:20.764Z,-3.91
2022-12-12T09:13:22.328Z,-3.77
2022-12-12T09:16:26.438Z,-3.66
2022-12-12T09:19:28.211Z,-3.64
2022-12-12T09:22:29.849Z,-3.64
2022-12-12T09:25:32.864Z,-3.60
2022-12-12T09:28:34.880Z,-3.58
2022-12-12T09:31:39.476Z,-3.63
2022-12-12T09:34:41.115Z,-3.57
2022-12-12T09:37:42.701Z,-3.53
2022-12-12T09:40:49.096Z,-3.53
2022-12-12T09:43:54.529Z,-3.58
2022-12-12T09:47:00.363Z,-3.55
2022-12-12T09:50:04.392Z,-3.47
2022-12-12T09:53:10.262Z,-3.39
2022-12-12T09:56:18.284Z,-3.32
2022-12-12T09:59:22.357Z,-3.30
2022-12-12T10:02:33.995Z,-3.23
2022-12-12T10:05:40.384Z,-3.10
2022-12-12T10:08:45.456Z,-3.06
2022-12-12T10:11:53.127Z,-3.04
2022-12-12T10:14:56.316Z,-2.96
2022-12-12T10:17:59.184Z,-2.95
2022-12-12T10:21:02.973Z,-2.93
2022-12-12T10:24:08.332Z,-2.68
2022-12-12T10:27:13.039Z,-2.57
2022-12-12T10:30:16.669Z,-2.41
2022-12-12T10:33:24.907Z,-2.27
2022-12-12T10:36:41.435Z,-2.25
2022-12-12T10:39:48.205Z,-2.13
2022-12-12T10:42:54.152Z,-1.90
2022-12-12T10:46:08.935Z,-1.85
2022-12-12T10:49:13.817Z,-1.81
2022-12-12T10:52:17.573Z,-1.76
2022-12-12T10:55:21.019Z,-1.81
2022-12-12T10:58:26.437Z,-1.85
2022-12-12T11:02:07.927Z,-1.81
2022-12-12T11:04:57.654Z,-1.69
2022-12-12T11:08:01.455Z,-1.64
2022-12-12T11:11:05.823Z,-1.76
2022-12-12T11:14:22.238Z,-1.72
2022-12-12T11:17:25.812Z,-1.77
2022-12-12T11:20:28.399Z,-1.76
2022-12-12T11:23:31.374Z,-1.64
2022-12-12T11:26:38.902Z,-1.54
2022-12-12T11:29:44.588Z,-1.43
2022-12-12T11:32:47.411Z,-1.38
2022-12-12T11:35:54.807Z,-1.46
2022-12-12T11:38:57.162Z,-1.49
2022-12-12T11:42:01.003Z,-1.44
2022-12-12T11:45:05.176Z,-1.19
2022-12-12T11:48:32.131Z,-1.20
2022-12-12T11:51:35.523Z,-1.34
2022-12-12T11:54:37.064Z,-1.43
2022-12-12T11:57:48.562Z,-1.48
2022-12-12T12:00:55.558Z,-1.62
2022-12-12T12:04:10.111Z,-1.64
2022-12-12T12:07:22.842Z,-1.66
2022-12-12T12:10:32.622Z,-1.81
2022-12-12T12:13:41.212Z,-1.90
2022-12-12T12:16:51.890Z,-1.87
2022-12-12T12:19:57.090Z,-1.82
2022-12-12T12:23:05.438Z,-1.68
2022-12-12T12:26:09.111Z,-1.60
2022-12-12T12:29:25.230Z,-1.50
2022-12-12T12:32:34.294Z,-1.22
2022-12-12T12:35:42.474Z,-1.24
2022-12-12T12:38:54.610Z,-1.20
2022-12-12T12:42:05.346Z,-1.20
2022-12-12T12:45:13.143Z,-1.26
2022-12-12T12:48:19.586Z,-1.23
2022-12-12T12:51:24.575Z,-1.33
2022-12-12T12:57:36.506Z,-1.26
2022-12-12T13:00:38.621Z,-1.14
2022-12-12T13:03:45.709Z,-1.17
2022-12-12T13:06:50.718Z,-1.24
2022-12-12T13:09:54.638Z,-1.17
2022-12-12T13:12:59.037Z,-1.08
2022-12-12T13:16:04.701Z,-1.05
2022-12-12T13:19:11.490Z,-1.08
2022-12-12T13:22:17.558Z,-1.12
2022-12-12T13:25:23.385Z,-1.15
2022-12-12T13:28:27.222Z,-1.17
2022-12-12T13:31:36.280Z,-1.17
2022-12-12T13:34:41.564Z,-1.24
2022-12-12T13:37:46.918Z,-1.22
2022-12-12T13:41:09.924Z,-1.23
2022-12-12T13:44:30.902Z,-1.30
2022-12-12T13:47:55.435Z,-1.34
2022-12-12T13:51:15.623Z,-1.37
2022-12-12T13:54:44.692Z,-1.49
2022-12-12T13:58:19.464Z,-1.46
2022-12-12T14:01:32.101Z,-1.39
2022-12-12T14:04:35.437Z,-1.42
2022-12-12T14:07:37.714Z,-1.47
2022-12-12T14:10:41.661Z,-1.49
2022-12-12T14:13:45.942Z,-1.53
2022-12-12T14:16:51.955Z,-1.65
2022-12-12T14:19:55.048Z,-1.70
2022-12-12T14:23:11.598Z,-1.67
2022-12-12T14:26:40.456Z,-1.73
2022-12-12T14:29:44.142Z,-1.87
2022-12-12T14:32:50.769Z,-1.82
2022-12-12T14:35:57.026Z,-1.88
2022-12-12T14:39:06.686Z,-1.83
2022-12-12T14:42:16.880Z,-1.78
2022-12-12T14:45:30.727Z,-1.94
2022-12-12T14:48:32.862Z,-2.01
2022-12-12T14:51:35.923Z,-2.10
2022-12-12T14:54:37.837Z,-2.20
2022-12-12T14:57:40.003Z,-2.33
2022-12-12T15:00:47.691Z,-2.43
2022-12-12T15:03:49.945Z,-2.50
2022-12-12T15:06:52.397Z,-2.52
2022-12-12T15:09:54.345Z,-2.49
2022-12-12T15:12:56.356Z,-2.51
2022-12-12T15:15:59.445Z,-2.55
2022-12-12T15:19:01.847Z,-2.62
2022-12-12T15:22:03.928Z,-2.63
2022-12-12T15:25:15.982Z,-2.64
2022-12-12T15:28:20.118Z,-2.65
2022-12-12T15:31:23.274Z,-2.68
2022-12-12T15:34:29.800Z,-2.71
2022-12-12T15:37:31.982Z,-2.75
2022-12-12T15:40:34.820Z,-2.82
2022-12-12T15:43:37.334Z,-2.85
2022-12-12T15:46:40.395Z,-2.92
2022-12-12T15:49:42.896Z,-2.96
2022-12-12T15:52:45.538Z,-3.00
2022-12-12T15:55:52.564Z,-3.03
2022-12-12T15:58:58.666Z,-3.11
2022-12-12T16:02:15.075Z,-3.15
2022-12-12T16:05:24.753Z,-3.23
2022-12-12T16:08:31.712Z,-3.25
2022-12-12T16:11:39.322Z,-3.26
2022-12-12T16:14:42.764Z,-3.28
2022-12-12T16:17:57.376Z,-3.32
2022-12-12T16:21:01.002Z,-3.38
2022-12-12T16:24:10.148Z,-3.43
2022-12-12T16:27:12.172Z,-3.45
2022-12-12T16:30:14.913Z,-3.51
2022-12-12T16:33:22.843Z,-3.55
2022-12-12T16:36:25.794Z,-3.62
2022-12-12T16:39:27.582Z,-3.65
2022-12-12T16:42:29.224Z,-3.69
2022-12-12T16:45:31.040Z,-3.70
2022-12-12T16:48:33.467Z,-3.73
2022-12-12T16:51:39.540Z,-3.77
2022-12-12T16:54:41.407Z,-3.81
2022-12-12T16:57:42.958Z,-3.83
2022-12-12T17:00:45.193Z,-3.90
2022-12-12T17:03:47.122Z,-3.99
2022-12-12T17:06:53.348Z,-3.97
2022-12-12T17:09:55.048Z,-3.99
2022-12-12T17:12:57.024Z,-4.05
2022-12-12T17:15:58.733Z,-4.08
2022-12-12T17:19:00.479Z,-4.03
2022-12-12T17:22:03.880Z,-4.08
2022-12-12T17:25:06.225Z,-4.12
2022-12-12T17:28:07.845Z,-4.14
2022-12-12T17:31:09.859Z,-4.17
2022-12-12T17:34:11.556Z,-4.21
2022-12-12T17:37:14.521Z,-4.31
2022-12-12T17:40:16.658Z,-4.29
2022-12-12T17:43:19.183Z,-4.33
2022-12-12T17:46:20.879Z,-4.41
2022-12-12T17:49:22.504Z,-4.32
2022-12-12T17:52:25.650Z,-4.27
2022-12-12T17:55:51.382Z,-4.29
2022-12-12T17:58:49.819Z,-4.35
2022-12-12T18:01:54.575Z,-4.33
2022-12-12T18:04:56.266Z,-4.37
2022-12-12T18:07:59.408Z,-4.38
2022-12-12T18:11:01.033Z,-4.34
2022-12-12T18:14:06.192Z,-4.33
2022-12-12T18:17:07.883Z,-4.32
2022-12-12T18:20:10.382Z,-4.33
2022-12-12T18:23:13.325Z,-4.32
2022-12-12T18:26:21.799Z,-4.34
2022-12-12T18:29:24.232Z,-4.37
2022-12-12T18:32:25.788Z,-4.41
2022-12-12T18:35:28.761Z,-4.47
2022-12-12T18:38:32.184Z,-4.51
2022-12-12T18:41:36.447Z,-4.57
2022-12-12T18:44:38.277Z,-4.56
2022-12-12T18:47:40.080Z,-4.63
2022-12-12T18:50:41.650Z,-4.65
2022-12-12T18:53:47.045Z,-4.57
2022-12-12T18:56:49.047Z,-4.57
2022-12-12T18:59:50.607Z,-4.58
2022-12-12T19:02:52.216Z,-4.54
2022-12-12T19:05:53.862Z,-4.65
2022-12-12T19:08:56.897Z,-4.66
2022-12-12T19:12:02.344Z,-4.60
2022-12-12T19:15:20.191Z,-4.52
2022-12-12T19:18:21.775Z,-4.43
2022-12-12T19:21:24.645Z,-4.35
2022-12-12T19:24:27.685Z,-4.39
2022-12-12T19:27:31.575Z,-4.37
2022-12-12T19:30:33.779Z,-4.31
2022-12-12T19:33:35.859Z,-4.35
2022-12-12T19:36:38.049Z,-4.34
2022-12-12T19:39:41.146Z,-4.28
2022-12-12T19:42:42.868Z,-4.24
2022-12-12T19:45:44.651Z,-4.33
2022-12-12T19:48:46.687Z,-4.47
2022-12-12T19:51:48.584Z,-4.52
2022-12-12T19:54:51.610Z,-4.58
2022-12-12T19:57:53.340Z,-4.60
2022-12-12T20:00:54.928Z,-4.64
2022-12-12T20:03:57.401Z,-4.71
2022-12-12T20:06:59.139Z,-4.71
2022-12-12T20:10:02.146Z,-4.78
2022-12-12T20:13:03.888Z,-4.86
2022-12-12T20:16:06.500Z,-4.86
2022-12-12T20:19:08.305Z,-4.86
2022-12-12T20:22:10.027Z,-4.83
2022-12-12T20:25:13.140Z,-4.87
2022-12-12T20:28:15.037Z,-4.87
2022-12-12T20:31:17.767Z,-4.79
2022-12-12T20:34:22.516Z,-4.56
2022-12-12T20:37:24.429Z,-4.51
2022-12-12T20:40:29.098Z,-4.48
2022-12-12T20:43:31.040Z,-4.44
2022-12-12T20:46:33.511Z,-4.54
2022-12-12T20:49:36.274Z,-4.59
2022-12-12T20:52:37.887Z,-4.62
2022-12-12T20:55:40.978Z,-4.55
2022-12-12T20:58:43.039Z,-4.54
2022-12-12T21:01:44.833Z,-4.56
2022-12-12T21:04:46.516Z,-4.55
2022-12-12T21:07:48.412Z,-4.61
2022-12-12T21:10:51.721Z,-4.64
2022-12-12T21:13:53.756Z,-4.79
2022-12-12T21:16:56.854Z,-4.96
2022-12-12T21:20:03.174Z,-5.02
2022-12-12T21:23:07.990Z,-5.09
2022-12-12T21:26:16.709Z,-5.10
2022-12-12T21:29:20.350Z,-5.13
2022-12-12T21:32:22.244Z,-5.13
2022-12-12T21:35:24.103Z,-5.17
2022-12-12T21:38:25.781Z,-5.19
2022-12-12T21:41:28.982Z,-5.27
2022-12-12T21:44:30.605Z,-5.29
2022-12-12T21:47:32.403Z,-5.31
2022-12-12T21:50:33.954Z,-5.30
2022-12-12T21:53:35.760Z,-5.35
2022-12-12T21:56:39.385Z,-5.36
2022-12-12T21:59:41.983Z,-5.38
2022-12-12T22:02:46.985Z,-5.41
2022-12-12T22:05:51.734Z,-5.43
2022-12-12T22:08:54.948Z,-5.41
2022-12-12T22:12:04.274Z,-5.44
2022-12-12T22:15:06.444Z,-5.45
2022-12-12T22:18:08.051Z,-5.43
2022-12-12T22:21:10.434Z,-5.41
2022-12-12T22:24:12.011Z,-5.39
2022-12-12T22:27:15.325Z,-5.41
2022-12-12T22:30:17.799Z,-5.36
2022-12-12T22:33:19.368Z,-5.27
2022-12-12T22:36:24.499Z,-5.31
2022-12-12T22:39:27.649Z,-5.35
2022-12-12T22:42:30.605Z,-5.36
2022-12-12T22:45:33.951Z,-5.48
2022-12-12T22:48:35.757Z,-5.58
2022-12-12T22:51:39.864Z,-5.57
2022-12-12T22:54:41.574Z,-5.52
2022-12-12T22:57:46.467Z,-5.58
2022-12-12T23:00:48.025Z,-5.59
2022-12-12T23:03:49.710Z,-5.60
2022-12-12T23:06:51.556Z,-5.64
2022-12-12T23:09:53.320Z,-5.68
2022-12-12T23:12:56.425Z,-5.71
2022-12-12T23:15:58.263Z,-5.74
2022-12-12T23:19:00.021Z,-5.77
2022-12-12T23:22:01.781Z,-5.80
2022-12-12T23:25:03.813Z,-5.80
2022-12-12T23:28:12.191Z,-5.80
2022-12-12T23:31:16.604Z,-5.80
2022-12-12T23:34:21.008Z,-5.83
2022-12-12T23:37:23.995Z,-5.88
2022-12-12T23:40:25.640Z,-5.89
2022-12-12T23:43:30.090Z,-5.91
2022-12-12T23:46:32.408Z,-5.91
2022-12-12T23:49:34.066Z,-5.97
2022-12-12T23:52:35.707Z,-6.02
2022-12-12T23:55:37.292Z,-6.00
2022-12-12T23:58:40.236Z,-6.00
